createdAt,value
2023-03-16T00:00:57.885Z,34.59
2023-03-16T00:01:57.943Z,34.59
2023-03-16T00:02:56.980Z,34.52
2023-03-16T00:03:56.932Z,34.54
2023-03-16T00:04:56.973Z,34.50
2023-03-16T00:05:57.997Z,34.50
2023-03-16T00:06:57.021Z,34.48
2023-03-16T00:07:57.150Z,34.50
2023-03-16T00:08:58.073Z,34.52
2023-03-16T00:09:58.085Z,34.55
2023-03-16T00:10:58.122Z,34.57
2023-03-16T00:11:58.112Z,34.53
2023-03-16T00:12:58.136Z,34.53
2023-03-16T00:13:58.163Z,34.58
2023-03-16T00:14:58.238Z,34.59
2023-03-16T00:15:58.257Z,34.58
2023-03-16T00:16:57.227Z,34.56
2023-03-16T00:17:58.253Z,34.62
2023-03-16T00:18:58.268Z,34.55
2023-03-16T00:19:58.302Z,34.53
2023-03-16T00:20:57.345Z,34.61
2023-03-16T00:21:58.373Z,34.61
2023-03-16T00:22:58.409Z,34.61
2023-03-16T00:23:58.429Z,34.57
2023-03-16T00:24:58.458Z,34.59
2023-03-16T00:25:58.504Z,34.64
2023-03-16T00:26:58.524Z,34.65
2023-03-16T00:27:58.551Z,34.58
2023-03-16T00:28:58.579Z,34.60
2023-03-16T00:29:58.619Z,34.59
2023-03-16T00:30:58.669Z,34.58
2023-03-16T00:31:58.691Z,34.57
2023-03-16T00:32:58.751Z,34.61
2023-03-16T00:33:58.717Z,34.61
2023-03-16T00:34:57.743Z,34.63
2023-03-16T00:35:58.791Z,34.62
2023-03-16T00:36:58.830Z,34.62
2023-03-16T00:37:58.826Z,34.62
2023-03-16T00:38:57.853Z,34.69
2023-03-16T00:39:57.895Z,34.64
2023-03-16T00:40:58.912Z,34.56
2023-03-16T00:41:57.949Z,34.64
2023-03-16T00:42:58.983Z,34.58
2023-03-16T00:43:59.025Z,34.62
2023-03-16T00:44:59.040Z,34.64
2023-03-16T00:45:59.217Z,34.65
2023-03-16T00:46:59.124Z,34.65
2023-03-16T00:47:59.136Z,34.63
2023-03-16T00:48:58.154Z,34.67
2023-03-16T00:49:58.198Z,34.62
2023-03-16T00:50:59.238Z,34.63
2023-03-16T00:51:59.282Z,34.62
2023-03-16T00:52:59.366Z,34.68
2023-03-16T00:53:59.345Z,34.68
2023-03-16T00:54:59.373Z,34.60
2023-03-16T00:55:59.404Z,34.65
2023-03-16T00:56:58.441Z,34.63
2023-03-16T00:57:59.483Z,34.62
2023-03-16T00:58:59.534Z,34.69
2023-03-16T00:59:58.537Z,34.62
2023-03-16T01:00:59.630Z,34.72
2023-03-16T01:01:59.601Z,34.64
2023-03-16T01:02:59.717Z,34.69
2023-03-16T01:03:59.666Z,34.71
2023-03-16T01:04:59.700Z,34.64
2023-03-16T01:05:59.750Z,34.68
2023-03-16T01:06:59.768Z,34.69
2023-03-16T01:07:59.811Z,34.68
2023-03-16T01:08:58.813Z,34.65
2023-03-16T01:09:59.866Z,34.67
2023-03-16T01:10:58.889Z,34.62
2023-03-16T01:11:59.934Z,34.65
2023-03-16T01:12:59.987Z,34.64
2023-03-16T01:14:00.002Z,34.70
2023-03-16T01:14:59.047Z,34.64
2023-03-16T01:16:00.122Z,34.69
2023-03-16T01:17:00.298Z,34.69
2023-03-16T01:18:00.160Z,34.67
2023-03-16T01:19:00.217Z,34.70
2023-03-16T01:19:59.250Z,34.68
2023-03-16T01:20:59.264Z,34.72
2023-03-16T01:21:59.290Z,34.67
2023-03-16T01:23:00.329Z,34.68
2023-03-16T01:23:59.359Z,34.70
2023-03-16T01:24:59.414Z,34.68
2023-03-16T01:26:00.437Z,34.64
2023-03-16T01:26:59.473Z,34.68
2023-03-16T01:28:00.506Z,34.70
2023-03-16T01:28:59.557Z,34.73
2023-03-16T01:30:00.587Z,34.72
2023-03-16T01:30:59.638Z,34.73
2023-03-16T01:32:00.668Z,34.68
2023-03-16T01:33:00.796Z,34.69
2023-03-16T01:34:00.740Z,34.72
2023-03-16T01:34:59.816Z,34.74
2023-03-16T01:36:00.878Z,34.75
2023-03-16T01:37:00.888Z,34.73
2023-03-16T01:38:00.915Z,34.72
2023-03-16T01:39:00.947Z,34.74
2023-03-16T01:40:00.979Z,34.70
2023-03-16T01:41:01.015Z,34.76
2023-03-16T01:42:01.065Z,34.72
2023-03-16T01:43:01.134Z,34.76
2023-03-16T01:44:01.126Z,34.70
2023-03-16T01:45:00.158Z,34.73
2023-03-16T01:46:01.321Z,34.75
2023-03-16T01:47:01.247Z,34.73
2023-03-16T01:48:01.310Z,34.74
2023-03-16T01:49:01.338Z,34.78
2023-03-16T01:50:00.400Z,34.76
2023-03-16T01:51:01.466Z,34.74
2023-03-16T01:52:01.534Z,34.71
2023-03-16T01:53:00.509Z,34.74
2023-03-16T01:54:01.560Z,34.73
2023-03-16T01:55:00.652Z,34.75
2023-03-16T01:56:01.652Z,34.78
2023-03-16T01:57:01.697Z,34.78
2023-03-16T01:58:01.774Z,34.72
2023-03-16T01:59:01.779Z,34.79
2023-03-16T02:00:01.881Z,34.80
2023-03-16T02:01:01.930Z,34.76
2023-03-16T02:02:01.926Z,34.79
2023-03-16T02:03:01.954Z,34.75
2023-03-16T02:04:02.050Z,34.74
2023-03-16T02:05:01.043Z,34.78
2023-03-16T02:06:02.079Z,34.80
2023-03-16T02:07:02.159Z,34.77
2023-03-16T02:08:01.157Z,34.71
2023-03-16T02:09:02.229Z,34.75
2023-03-16T02:10:02.258Z,34.81
2023-03-16T02:11:02.286Z,34.77
2023-03-16T02:12:02.336Z,34.83
2023-03-16T02:13:02.384Z,34.77
2023-03-16T02:14:02.448Z,34.77
2023-03-16T02:15:02.478Z,34.79
2023-03-16T02:16:02.612Z,34.79
2023-03-16T02:17:01.570Z,34.76
2023-03-16T02:18:02.607Z,34.76
2023-03-16T02:19:02.652Z,34.81
2023-03-16T02:20:02.694Z,34.75
2023-03-16T02:21:02.740Z,34.81
2023-03-16T02:22:02.820Z,34.76
2023-03-16T02:23:02.830Z,34.80
2023-03-16T02:24:02.863Z,34.80
2023-03-16T02:25:02.891Z,34.77
2023-03-16T02:26:02.938Z,34.72
2023-03-16T02:27:03.028Z,34.76
2023-03-16T02:28:03.054Z,34.81
2023-03-16T02:29:02.084Z,34.84
2023-03-16T02:30:03.109Z,34.78
2023-03-16T02:31:02.237Z,34.80
2023-03-16T02:32:03.194Z,34.80
2023-03-16T02:33:02.333Z,34.79
2023-03-16T02:34:02.275Z,34.84
2023-03-16T02:35:03.388Z,34.82
2023-03-16T02:36:03.459Z,34.84
2023-03-16T02:37:03.405Z,34.85
2023-03-16T02:38:03.439Z,34.81
2023-03-16T02:39:02.511Z,34.85
2023-03-16T02:40:02.568Z,34.84
2023-03-16T02:41:02.577Z,34.86
2023-03-16T02:42:03.634Z,34.81
2023-03-16T02:43:03.675Z,34.85
2023-03-16T02:44:03.754Z,34.85
2023-03-16T02:45:03.811Z,34.77
2023-03-16T02:46:03.912Z,34.75
2023-03-16T02:47:03.886Z,34.78
2023-03-16T02:48:03.932Z,34.87
2023-03-16T02:49:03.989Z,34.86
2023-03-16T02:50:04.025Z,34.84
2023-03-16T02:51:04.114Z,34.82
2023-03-16T02:52:04.116Z,34.86
2023-03-16T02:53:03.158Z,34.84
2023-03-16T02:54:04.221Z,34.82
2023-03-16T02:55:04.281Z,34.85
2023-03-16T02:56:03.364Z,34.84
2023-03-16T02:57:04.339Z,34.86
2023-03-16T02:58:04.396Z,34.84
2023-03-16T02:59:04.464Z,34.89
2023-03-16T03:00:04.479Z,34.86
2023-03-16T03:01:03.523Z,34.87
2023-03-16T03:02:04.720Z,34.87
2023-03-16T03:03:03.680Z,34.91
2023-03-16T03:04:04.687Z,34.89
2023-03-16T03:05:04.705Z,34.79
2023-03-16T03:06:03.779Z,34.81
2023-03-16T03:07:04.939Z,34.91
2023-03-16T03:08:04.902Z,34.83
2023-03-16T03:09:04.907Z,34.86
2023-03-16T03:10:04.927Z,34.86
2023-03-16T03:11:05.003Z,34.83
2023-03-16T03:12:05.046Z,34.82
2023-03-16T03:13:05.091Z,34.89
2023-03-16T03:14:05.148Z,34.81
2023-03-16T03:15:05.164Z,34.84
2023-03-16T03:16:05.362Z,34.83
2023-03-16T03:17:05.274Z,34.83
2023-03-16T03:18:05.369Z,34.80
2023-03-16T03:19:05.450Z,34.82
2023-03-16T03:20:05.476Z,34.84
2023-03-16T03:21:05.495Z,34.91
2023-03-16T03:22:05.535Z,34.91
2023-03-16T03:23:04.597Z,34.91
2023-03-16T03:24:05.679Z,34.88
2023-03-16T03:25:05.730Z,34.90
2023-03-16T03:26:05.760Z,34.89
2023-03-16T03:27:04.840Z,34.91
2023-03-16T03:28:04.965Z,34.88
2023-03-16T03:29:05.918Z,34.92
2023-03-16T03:30:05.951Z,34.85
2023-03-16T03:31:06.007Z,34.90
2023-03-16T03:32:06.080Z,34.86
2023-03-16T03:33:05.243Z,34.86
2023-03-16T03:34:06.183Z,34.85
2023-03-16T03:35:06.227Z,34.88
2023-03-16T03:36:06.411Z,34.87
2023-03-16T03:37:06.324Z,34.92
2023-03-16T03:38:06.383Z,34.98
2023-03-16T03:39:06.455Z,34.88
2023-03-16T03:40:06.486Z,34.80
2023-03-16T03:41:05.563Z,34.85
2023-03-16T03:42:06.649Z,34.89
2023-03-16T03:43:06.663Z,34.85
2023-03-16T03:44:06.731Z,34.92
2023-03-16T03:45:06.772Z,34.89
2023-03-16T03:46:05.991Z,34.88
2023-03-16T03:47:07.028Z,34.89
2023-03-16T03:48:06.953Z,34.89
2023-03-16T03:49:07.021Z,34.94
2023-03-16T03:50:07.052Z,34.89
2023-03-16T03:51:07.101Z,34.89
2023-03-16T03:52:06.214Z,34.94
2023-03-16T03:53:07.223Z,34.89
2023-03-16T03:54:07.304Z,34.93
2023-03-16T03:55:07.333Z,34.94
2023-03-16T03:56:06.394Z,34.93
2023-03-16T03:57:07.492Z,34.90
2023-03-16T03:58:06.549Z,34.92
2023-03-16T03:59:07.615Z,34.93
2023-03-16T04:00:06.650Z,34.97
2023-03-16T04:01:07.696Z,34.92
2023-03-16T04:02:07.918Z,34.97
2023-03-16T04:03:08.298Z,34.91
2023-03-16T04:04:06.896Z,34.89
2023-03-16T04:05:07.996Z,34.91
2023-03-16T04:06:07.026Z,34.94
2023-03-16T04:07:08.082Z,34.93
2023-03-16T04:08:08.223Z,34.86
2023-03-16T04:09:08.210Z,34.90
2023-03-16T04:10:08.254Z,34.94
2023-03-16T04:11:08.299Z,34.91
2023-03-16T04:12:08.356Z,34.93
2023-03-16T04:13:08.540Z,34.97
2023-03-16T04:14:07.484Z,34.96
2023-03-16T04:15:08.541Z,34.94
2023-03-16T04:16:08.577Z,34.99
2023-03-16T04:17:08.645Z,34.93
2023-03-16T04:18:07.705Z,34.97
2023-03-16T04:19:08.742Z,34.91
2023-03-16T04:20:08.808Z,34.91
2023-03-16T04:21:08.855Z,34.94
2023-03-16T04:22:08.917Z,34.93
2023-03-16T04:23:08.999Z,34.95
2023-03-16T04:24:08.023Z,34.95
2023-03-16T04:25:11.374Z,34.91
2023-03-16T04:26:09.075Z,34.90
2023-03-16T04:27:09.072Z,34.92
2023-03-16T04:28:08.058Z,34.96
2023-03-16T04:29:09.072Z,34.91
2023-03-16T04:30:09.043Z,34.96
2023-03-16T04:31:09.146Z,34.88
2023-03-16T04:32:08.032Z,34.91
2023-03-16T04:33:08.170Z,34.90
2023-03-16T04:34:08.028Z,34.87
2023-03-16T04:35:09.022Z,34.91
2023-03-16T04:36:09.109Z,34.86
2023-03-16T04:37:08.995Z,34.96
2023-03-16T04:38:09.001Z,34.91
2023-03-16T04:39:07.985Z,34.94
2023-03-16T04:40:10.454Z,34.90
2023-03-16T04:41:08.986Z,34.96
2023-03-16T04:42:08.958Z,34.97
2023-03-16T04:43:07.984Z,34.92
2023-03-16T04:44:08.952Z,34.92
2023-03-16T04:45:08.968Z,34.88
2023-03-16T04:46:08.993Z,34.96
2023-03-16T04:47:08.940Z,34.93
2023-03-16T04:48:08.938Z,34.97
2023-03-16T04:49:08.913Z,34.87
2023-03-16T04:50:08.922Z,34.92
2023-03-16T04:51:08.934Z,34.91
2023-03-16T04:52:08.902Z,34.91
2023-03-16T04:53:08.884Z,34.89
2023-03-16T04:54:08.882Z,34.93
2023-03-16T04:55:08.878Z,34.91
2023-03-16T04:56:08.886Z,34.93
2023-03-16T04:57:07.885Z,34.92
2023-03-16T04:58:08.863Z,34.92
2023-03-16T04:59:08.854Z,34.89
2023-03-16T05:00:08.898Z,34.89
2023-03-16T05:01:08.920Z,34.94
2023-03-16T05:02:08.839Z,34.93
2023-03-16T05:03:07.850Z,34.94
2023-03-16T05:04:11.571Z,34.93
2023-03-16T05:05:08.008Z,34.93
2023-03-16T05:06:07.895Z,34.92
2023-03-16T05:07:08.880Z,34.92
2023-03-16T05:08:08.885Z,34.93
2023-03-16T05:09:07.878Z,34.82
2023-03-16T05:10:08.902Z,34.94
2023-03-16T05:11:08.949Z,34.86
2023-03-16T05:12:09.014Z,34.90
2023-03-16T05:13:09.070Z,34.93
2023-03-16T05:14:09.146Z,34.91
2023-03-16T05:15:08.211Z,34.86
2023-03-16T05:16:09.350Z,34.94
2023-03-16T05:17:09.370Z,34.96
2023-03-16T05:18:09.404Z,34.92
2023-03-16T05:19:08.468Z,34.88
2023-03-16T05:20:08.548Z,34.91
2023-03-16T05:21:09.587Z,34.94
2023-03-16T05:22:08.667Z,34.93
2023-03-16T05:23:08.736Z,34.91
2023-03-16T05:24:09.770Z,34.88
2023-03-16T05:25:09.819Z,34.88
2023-03-16T05:26:09.884Z,34.91
2023-03-16T05:27:08.930Z,34.89
2023-03-16T05:28:09.972Z,34.91
2023-03-16T05:29:10.038Z,34.88
2023-03-16T05:30:10.086Z,34.88
2023-03-16T05:31:10.217Z,34.86
2023-03-16T05:32:09.218Z,34.83
2023-03-16T05:33:10.386Z,34.84
2023-03-16T05:34:10.309Z,34.90
2023-03-16T05:35:09.372Z,34.85
2023-03-16T05:36:10.443Z,34.90
2023-03-16T05:37:09.486Z,34.87
2023-03-16T05:38:10.512Z,34.87
2023-03-16T05:39:10.588Z,34.86
2023-03-16T05:40:09.635Z,34.86
2023-03-16T05:41:10.662Z,34.92
2023-03-16T05:42:10.746Z,34.88
2023-03-16T05:43:10.795Z,34.86
2023-03-16T05:44:10.861Z,34.88
2023-03-16T05:45:10.944Z,34.90
2023-03-16T05:46:11.011Z,34.87
2023-03-16T05:47:09.982Z,34.85
2023-03-16T05:48:11.038Z,34.88
2023-03-16T05:49:10.101Z,34.88
2023-03-16T05:50:11.162Z,34.90
2023-03-16T05:51:11.185Z,34.88
2023-03-16T05:52:11.260Z,34.86
2023-03-16T05:53:11.324Z,34.83
2023-03-16T05:54:11.367Z,34.85
2023-03-16T05:55:11.442Z,34.88
2023-03-16T05:56:11.481Z,34.89
2023-03-16T05:57:10.541Z,34.88
2023-03-16T05:58:11.588Z,34.89
2023-03-16T05:59:11.652Z,34.88
2023-03-16T06:00:11.696Z,34.86
2023-03-16T06:01:10.747Z,34.85
2023-03-16T06:02:11.792Z,34.84
2023-03-16T06:03:11.904Z,34.83
2023-03-16T06:04:11.970Z,34.81
2023-03-16T06:05:11.901Z,34.84
2023-03-16T06:08:11.956Z,34.90
2023-03-16T06:09:11.994Z,34.85
2023-03-16T06:10:12.050Z,34.83
2023-03-16T06:17:11.322Z,34.75
2023-03-16T06:18:12.354Z,34.81
2023-03-16T06:19:12.382Z,34.81
2023-03-16T06:20:12.428Z,34.86
2023-03-16T06:26:11.666Z,34.58
2023-03-16T06:28:12.734Z,34.70
2023-03-16T06:29:12.801Z,34.81
2023-03-16T06:31:12.977Z,34.75
2023-03-16T06:32:12.980Z,34.78
2023-03-16T06:33:13.024Z,34.72
2023-03-16T06:34:13.085Z,34.68
2023-03-16T06:35:13.152Z,34.75
2023-03-16T06:36:13.250Z,34.80
2023-03-16T06:37:13.315Z,34.85
2023-03-16T06:38:13.324Z,34.80
2023-03-16T06:39:13.377Z,34.85
2023-03-16T06:40:13.498Z,34.84
2023-03-16T06:41:12.497Z,34.80
2023-03-16T06:42:13.562Z,34.87
2023-03-16T06:43:13.614Z,35.07
2023-03-16T06:44:13.682Z,35.24
2023-03-16T06:45:13.742Z,35.16
2023-03-16T06:49:13.888Z,35.38
2023-03-16T06:53:14.046Z,35.67
2023-03-16T07:02:13.353Z,36.22
2023-03-16T07:03:14.105Z,36.79
2023-03-16T07:05:13.210Z,37.14
2023-03-16T07:07:14.330Z,36.71
2023-03-16T07:08:14.388Z,36.93
2023-03-16T07:10:14.471Z,36.84
2023-03-16T07:11:14.497Z,36.66
2023-03-16T07:12:14.547Z,37.15
2023-03-16T07:13:14.573Z,37.07
2023-03-16T07:15:14.630Z,37.31
2023-03-16T07:17:13.688Z,37.29
2023-03-16T07:18:13.721Z,37.33
2023-03-16T07:19:13.735Z,37.23
2023-03-16T07:21:14.778Z,37.31
2023-03-16T07:22:14.782Z,37.30
2023-03-16T07:23:14.791Z,37.29
2023-03-16T07:25:14.816Z,37.26
2023-03-16T07:30:14.819Z,37.56
2023-03-16T07:31:13.811Z,37.51
2023-03-16T07:32:13.827Z,37.64
2023-03-16T07:33:14.825Z,37.68
2023-03-16T07:34:14.867Z,37.66
2023-03-16T07:35:14.877Z,37.59
2023-03-16T07:36:14.998Z,37.53
2023-03-16T07:37:13.939Z,37.91
2023-03-16T07:38:14.941Z,37.73
2023-03-16T07:39:14.952Z,37.87
2023-03-16T07:40:13.999Z,37.78
2023-03-16T07:43:15.015Z,38.02
2023-03-16T07:44:15.077Z,37.99
2023-03-16T07:46:15.255Z,37.83
2023-03-16T07:52:16.329Z,37.15
2023-03-16T07:55:15.537Z,36.45
2023-03-16T10:43:18.573Z,26.02
2023-03-16T10:45:18.616Z,26.17
2023-03-16T10:46:18.782Z,26.31
2023-03-16T10:47:18.667Z,27.08
2023-03-16T10:48:18.936Z,27.05
2023-03-16T10:49:18.673Z,27.00
2023-03-16T10:50:18.732Z,26.97
2023-03-16T10:51:18.764Z,27.18
2023-03-16T10:53:18.918Z,26.82
2023-03-16T10:54:18.867Z,27.53
2023-03-16T10:55:18.878Z,27.20
2023-03-16T10:57:18.937Z,27.38
2023-03-16T10:58:18.959Z,27.80
2023-03-16T10:59:18.997Z,27.12
2023-03-16T11:00:19.092Z,27.37
2023-03-16T11:03:19.212Z,26.61
2023-03-16T11:04:19.337Z,27.15
2023-03-16T11:05:19.367Z,27.31
2023-03-16T11:08:19.480Z,27.52
2023-03-16T11:09:18.557Z,27.22
2023-03-16T11:10:19.646Z,26.81
2023-03-16T11:11:19.688Z,26.62
2023-03-16T11:12:19.689Z,26.79
2023-03-16T11:13:19.730Z,27.12
2023-03-16T11:14:19.768Z,25.96
2023-03-16T11:15:25.779Z,27.00
2023-03-16T11:16:19.833Z,26.66
2023-03-16T11:17:19.804Z,26.83
2023-03-16T11:18:18.827Z,27.34
2023-03-16T11:19:19.793Z,27.28
2023-03-16T11:20:19.785Z,26.94
2023-03-16T11:23:19.807Z,27.03
2023-03-16T11:36:18.773Z,26.61
2023-03-16T11:38:18.655Z,27.49
2023-03-16T11:39:19.656Z,27.31
2023-03-16T11:45:18.871Z,27.44
2023-03-16T11:47:18.893Z,27.25
2023-03-16T11:56:18.992Z,27.25
2023-03-16T12:02:19.131Z,27.13
2023-03-16T12:03:20.102Z,27.22
2023-03-16T12:05:20.064Z,27.11
2023-03-16T12:06:22.897Z,27.23
2023-03-16T12:07:20.071Z,27.22
2023-03-16T12:15:18.985Z,27.46
2023-03-16T12:21:19.956Z,27.42
2023-03-16T12:22:20.060Z,27.29
2023-03-16T12:23:18.936Z,27.35
2023-03-16T12:24:19.940Z,27.44
2023-03-16T12:26:19.937Z,27.27
2023-03-16T12:27:19.905Z,27.21
2023-03-16T12:28:19.901Z,27.31
2023-03-16T12:29:19.924Z,27.32
2023-03-16T12:30:19.883Z,27.18
2023-03-16T12:31:19.987Z,27.09
2023-03-16T12:32:19.897Z,27.18
2023-03-16T12:35:19.836Z,27.06
2023-03-16T12:36:19.871Z,27.08
2023-03-16T12:37:19.855Z,27.05
2023-03-16T12:39:19.937Z,27.29
2023-03-16T12:40:19.896Z,27.23
2023-03-16T12:44:20.080Z,27.30
2023-03-16T12:45:20.113Z,27.20
2023-03-16T12:46:19.136Z,27.27
2023-03-16T12:47:20.157Z,27.36
2023-03-16T12:48:19.184Z,27.27
2023-03-16T12:49:20.309Z,27.30
2023-03-16T12:50:20.276Z,27.28
2023-03-16T12:51:20.287Z,27.25
2023-03-16T12:52:20.338Z,27.33
2023-03-16T12:54:20.471Z,27.38
2023-03-16T12:55:19.432Z,27.53
2023-03-16T12:56:20.463Z,27.48
2023-03-16T12:59:19.535Z,27.50
2023-03-16T13:00:20.586Z,27.65
2023-03-16T13:01:20.724Z,27.55
2023-03-16T13:02:19.659Z,27.61
2023-03-16T13:03:20.697Z,27.58
2023-03-16T13:04:20.923Z,27.53
2023-03-16T13:06:20.872Z,27.54
2023-03-16T13:07:20.881Z,27.41
2023-03-16T13:08:20.879Z,27.67
2023-03-16T13:09:20.934Z,27.54
2023-03-16T13:10:21.062Z,27.49
2023-03-16T13:11:21.024Z,27.55
2023-03-16T13:12:21.057Z,27.59
2023-03-16T13:14:21.139Z,27.61
2023-03-16T13:15:20.155Z,27.66
2023-03-16T13:17:21.331Z,27.69
2023-03-16T13:18:21.252Z,27.71
2023-03-16T13:20:30.265Z,27.40
2023-03-16T13:21:21.317Z,28.07
2023-03-16T13:22:21.281Z,28.27
2023-03-16T13:23:21.296Z,27.93
2023-03-16T13:24:20.410Z,28.08
2023-03-16T13:25:21.286Z,27.69
2023-03-16T13:26:21.262Z,27.98
2023-03-16T13:27:21.252Z,27.97
2023-03-16T13:28:21.244Z,27.91
2023-03-16T13:30:21.359Z,27.87
2023-03-16T13:31:20.291Z,28.00
2023-03-16T13:32:21.225Z,28.06
2023-03-16T13:33:21.257Z,28.15
2023-03-16T13:34:20.289Z,28.23
2023-03-16T13:35:20.188Z,28.13
2023-03-16T13:36:21.182Z,28.28
2023-03-16T13:37:20.163Z,28.27
2023-03-16T13:38:21.199Z,28.43
2023-03-16T13:39:21.219Z,28.36
2023-03-16T13:40:21.168Z,28.41
2023-03-16T13:41:21.194Z,28.53
2023-03-16T13:42:21.148Z,28.68
2023-03-16T13:43:21.180Z,28.73
2023-03-16T13:44:21.202Z,28.71
2023-03-16T13:45:21.140Z,28.74
2023-03-16T13:46:21.226Z,28.75
2023-03-16T13:47:21.102Z,28.88
2023-03-16T13:48:21.103Z,28.87
2023-03-16T13:49:21.121Z,28.91
2023-03-16T13:50:21.076Z,28.93
2023-03-16T13:51:21.073Z,29.00
2023-03-16T13:52:20.053Z,28.92
2023-03-16T13:53:21.087Z,29.01
2023-03-16T13:54:20.087Z,29.01
2023-03-16T13:55:21.124Z,29.03
2023-03-16T13:56:20.158Z,29.11
2023-03-16T13:57:21.222Z,29.14
2023-03-16T13:58:20.226Z,29.10
2023-03-16T13:59:21.289Z,29.06
2023-03-16T14:00:20.431Z,29.30
2023-03-16T14:01:21.459Z,29.24
2023-03-16T14:02:21.664Z,29.30
2023-03-16T14:03:21.475Z,29.39
2023-03-16T14:04:21.549Z,29.83
2023-03-16T14:05:20.598Z,29.39
2023-03-16T14:06:20.640Z,29.33
2023-03-16T14:07:20.678Z,29.34
2023-03-16T14:08:21.728Z,29.37
2023-03-16T14:09:21.790Z,29.35
2023-03-16T14:10:21.817Z,29.59
2023-03-16T14:11:21.876Z,29.29
2023-03-16T14:12:21.936Z,29.55
2023-03-16T14:13:21.994Z,29.61
2023-03-16T14:14:22.069Z,29.57
2023-03-16T14:15:21.083Z,29.71
2023-03-16T14:16:22.247Z,29.70
2023-03-16T14:17:22.229Z,29.67
2023-03-16T14:18:22.289Z,29.63
2023-03-16T14:19:22.349Z,29.81
2023-03-16T14:20:21.401Z,29.61
2023-03-16T14:21:21.573Z,29.73
2023-03-16T14:22:22.530Z,29.90
2023-03-16T14:23:22.562Z,29.76
2023-03-16T14:24:21.625Z,29.79
2023-03-16T14:26:22.755Z,29.95
2023-03-16T14:28:22.859Z,29.87
2023-03-16T14:29:22.941Z,29.82
2023-03-16T14:31:23.141Z,29.98
2023-03-16T14:32:23.120Z,30.03
2023-03-16T14:33:23.179Z,30.00
2023-03-16T14:34:23.244Z,30.04
2023-03-16T14:35:23.328Z,30.17
2023-03-16T14:36:23.375Z,30.08
2023-03-16T14:39:22.554Z,30.18
2023-03-16T14:40:22.598Z,30.15
2023-03-16T14:41:22.674Z,30.19
2023-03-16T14:43:23.786Z,30.26
2023-03-16T14:44:22.861Z,30.29
2023-03-16T14:45:23.917Z,30.28
2023-03-16T14:47:24.076Z,30.16
2023-03-16T14:49:24.177Z,30.19
2023-03-16T14:53:23.469Z,30.36
2023-03-16T15:06:24.169Z,30.56
2023-03-16T15:07:24.244Z,30.57
2023-03-16T15:18:24.782Z,30.66
2023-03-16T15:19:24.859Z,30.63
2023-03-16T15:23:24.985Z,30.73
2023-03-16T15:27:25.200Z,30.81
2023-03-16T15:40:25.706Z,31.15
2023-03-16T15:42:25.666Z,31.14
2023-03-16T15:48:25.701Z,31.23
2023-03-16T15:49:27.029Z,31.28
2023-03-16T15:53:30.605Z,31.36
2023-03-16T16:03:25.651Z,31.35
2023-03-16T16:15:25.547Z,31.33
2023-03-16T16:24:25.497Z,31.38
2023-03-16T16:28:25.501Z,31.62
2023-03-16T16:30:26.484Z,31.92
2023-03-16T16:31:26.534Z,31.80
2023-03-16T16:32:26.576Z,31.96
2023-03-16T16:33:26.473Z,31.90
2023-03-16T16:34:26.486Z,31.82
2023-03-16T16:35:26.588Z,31.97
2023-03-16T16:36:26.481Z,31.88
2023-03-16T16:37:26.490Z,32.04
2023-03-16T16:38:25.485Z,32.11
2023-03-16T16:39:26.506Z,32.23
2023-03-16T16:40:26.527Z,32.19
2023-03-16T16:41:26.514Z,32.08
2023-03-16T16:42:27.596Z,32.08
2023-03-16T16:43:25.543Z,32.25
2023-03-16T16:44:26.563Z,32.18
2023-03-16T16:45:25.606Z,32.25
2023-03-16T16:46:26.656Z,32.28
2023-03-16T16:47:26.618Z,32.17
2023-03-16T16:48:25.610Z,32.15
2023-03-16T16:49:25.601Z,32.03
2023-03-16T16:50:26.602Z,32.32
2023-03-16T16:51:26.607Z,32.24
2023-03-16T16:52:26.656Z,32.20
2023-03-16T16:53:25.639Z,32.18
2023-03-16T16:54:26.635Z,32.15
2023-03-16T16:55:26.851Z,32.18
2023-03-16T16:56:26.614Z,32.11
2023-03-16T16:57:26.619Z,32.10
2023-03-16T16:58:25.612Z,32.08
2023-03-16T16:59:25.613Z,32.07
2023-03-16T17:00:25.624Z,32.01
2023-03-16T17:01:26.689Z,32.07
2023-03-16T17:02:25.590Z,32.10
2023-03-16T17:03:26.596Z,32.12
2023-03-16T17:04:26.644Z,32.21
2023-03-16T17:05:25.599Z,32.15
2023-03-16T17:06:25.587Z,32.14
2023-03-16T17:07:26.586Z,32.15
2023-03-16T17:08:26.598Z,32.21
2023-03-16T17:09:26.626Z,32.29
2023-03-16T17:10:26.646Z,32.40
2023-03-16T17:11:26.646Z,32.33
2023-03-16T17:12:26.675Z,32.30
2023-03-16T17:13:26.725Z,32.29
2023-03-16T17:14:26.697Z,32.29
2023-03-16T17:15:26.797Z,32.36
2023-03-16T17:16:26.780Z,32.18
2023-03-16T17:17:25.750Z,32.39
2023-03-16T17:18:26.726Z,32.29
2023-03-16T17:19:26.718Z,32.18
2023-03-16T17:20:26.718Z,32.23
2023-03-16T17:21:26.709Z,32.12
2023-03-16T17:22:26.710Z,32.29
2023-03-16T17:23:26.706Z,32.26
2023-03-16T17:24:26.690Z,32.32
2023-03-16T17:25:26.744Z,32.29
2023-03-16T17:26:26.691Z,32.37
2023-03-16T17:27:26.692Z,32.43
2023-03-16T17:28:26.692Z,32.47
2023-03-16T17:29:26.717Z,32.61
2023-03-16T17:30:26.736Z,32.41
2023-03-16T17:31:25.797Z,32.51
2023-03-16T17:32:26.876Z,32.46
2023-03-16T17:33:25.757Z,32.57
2023-03-16T17:34:26.731Z,32.66
2023-03-16T17:35:26.785Z,32.57
2023-03-16T17:36:26.751Z,32.49
2023-03-16T17:37:26.763Z,32.61
2023-03-16T17:38:26.856Z,32.58
2023-03-16T17:39:26.762Z,32.59
2023-03-16T17:40:26.762Z,32.65
2023-03-16T17:41:26.786Z,32.52
2023-03-16T17:42:26.755Z,32.49
2023-03-16T17:43:26.867Z,32.57
2023-03-16T17:44:26.801Z,32.45
2023-03-16T17:45:27.165Z,32.48
2023-03-16T17:46:25.794Z,32.49
2023-03-16T17:47:26.769Z,32.52
2023-03-16T17:48:25.777Z,32.57
2023-03-16T17:49:26.819Z,32.59
2023-03-16T17:50:26.929Z,32.55
2023-03-16T17:51:26.783Z,32.56
2023-03-16T17:52:26.836Z,32.52
2023-03-16T17:53:26.785Z,32.63
2023-03-16T17:54:26.797Z,32.58
2023-03-16T17:55:25.820Z,32.53
2023-03-16T17:56:26.814Z,32.48
2023-03-16T17:57:26.809Z,32.48
2023-03-16T17:58:26.823Z,32.51
2023-03-16T17:59:26.823Z,32.51
2023-03-16T18:00:26.947Z,32.55
2023-03-16T18:01:25.854Z,32.62
2023-03-16T18:02:26.852Z,32.62
2023-03-16T18:03:28.634Z,32.56
2023-03-16T18:04:26.851Z,32.53
2023-03-16T18:05:26.882Z,32.67
2023-03-16T18:06:26.830Z,32.71
2023-03-16T18:07:26.812Z,32.69
2023-03-16T18:08:26.814Z,32.70
2023-03-16T18:09:26.814Z,32.77
2023-03-16T18:10:26.859Z,32.82
2023-03-16T18:11:26.807Z,32.90
2023-03-16T18:12:26.785Z,32.80
2023-03-16T18:13:25.780Z,32.89
2023-03-16T18:14:26.764Z,32.77
2023-03-16T18:15:26.791Z,32.77
2023-03-16T18:16:26.847Z,32.87
2023-03-16T18:17:26.760Z,32.84
2023-03-16T18:18:26.758Z,32.86
2023-03-16T18:19:25.883Z,32.95
2023-03-16T18:20:26.749Z,32.85
2023-03-16T18:21:26.759Z,32.89
2023-03-16T18:22:26.719Z,32.90
2023-03-16T18:23:26.704Z,32.95
2023-03-16T18:24:26.754Z,32.93
2023-03-16T18:25:25.699Z,32.86
2023-03-16T18:26:26.698Z,32.90
2023-03-16T18:27:26.700Z,32.85
2023-03-16T18:28:25.688Z,32.86
2023-03-16T18:29:26.679Z,33.06
2023-03-16T18:30:26.852Z,33.00
2023-03-16T18:31:26.716Z,32.92
2023-03-16T18:32:26.703Z,33.08
2023-03-16T18:33:26.647Z,33.04
2023-03-16T18:34:25.647Z,32.93
2023-03-16T18:35:26.682Z,33.01
2023-03-16T18:36:26.625Z,32.97
2023-03-16T18:37:26.646Z,32.95
2023-03-16T18:38:26.613Z,32.94
2023-03-16T18:39:25.612Z,32.93
2023-03-16T18:40:25.614Z,33.00
2023-03-16T18:41:26.615Z,33.04
2023-03-16T18:42:25.616Z,33.10
2023-03-16T18:43:27.332Z,33.02
2023-03-16T18:44:26.662Z,33.02
2023-03-16T18:45:26.762Z,33.06
2023-03-16T18:46:26.806Z,33.06
2023-03-16T18:47:25.753Z,33.05
2023-03-16T18:48:26.789Z,33.08
2023-03-16T18:49:26.826Z,33.06
2023-03-16T18:50:26.852Z,33.16
2023-03-16T18:51:26.868Z,33.12
2023-03-16T18:52:26.880Z,33.19
2023-03-16T18:53:26.973Z,33.13
2023-03-16T18:54:26.923Z,33.16
2023-03-16T18:55:27.104Z,33.19
2023-03-16T18:56:25.970Z,33.24
2023-03-16T18:57:26.997Z,33.22
2023-03-16T18:58:27.013Z,33.23
2023-03-16T18:59:27.047Z,33.13
2023-03-16T19:00:27.207Z,33.06
2023-03-16T19:01:27.126Z,33.17
2023-03-16T19:02:26.240Z,33.31
2023-03-16T19:03:27.178Z,33.27
2023-03-16T19:04:27.213Z,33.21
2023-03-16T19:05:27.620Z,33.23
2023-03-16T19:06:26.278Z,33.30
2023-03-16T19:07:27.312Z,33.35
2023-03-16T19:08:27.348Z,33.16
2023-03-16T19:09:26.418Z,33.28
2023-03-16T19:10:27.442Z,33.25
2023-03-16T19:11:27.487Z,33.24